createdAt,value
2019-04-06T00:00:42.933Z,86.13
2019-04-06T00:01:42.924Z,86.13
2019-04-06T00:02:42.936Z,86.65
2019-04-06T00:03:42.908Z,87.16
2019-04-06T00:04:42.907Z,87.05
2019-04-06T00:05:42.883Z,87.57
2019-04-06T00:06:42.871Z,87.16
2019-04-06T00:07:42.877Z,87.67
2019-04-06T00:08:42.843Z,87.61
2019-04-06T00:09:42.836Z,87.57
2019-04-06T00:10:42.822Z,87.61
2019-04-06T00:11:42.810Z,87.40
2019-04-06T00:12:42.866Z,87.71
2019-04-06T00:13:42.793Z,87.77
2019-04-06T00:14:42.774Z,87.61
2019-04-06T00:15:42.761Z,87.71
2019-04-06T00:16:42.757Z,88.02
2019-04-06T00:17:42.764Z,87.40
2019-04-06T00:18:42.730Z,87.30
2019-04-06T00:19:42.741Z,87.61
2019-04-06T00:20:42.711Z,87.30
2019-04-06T00:21:42.695Z,87.40
2019-04-06T00:22:42.739Z,87.40
2019-04-06T00:23:42.672Z,87.57
2019-04-06T00:24:42.675Z,86.95
2019-04-06T00:25:44.524Z,87.40
2019-04-06T00:26:42.641Z,87.26
2019-04-06T00:27:42.662Z,88.02
2019-04-06T00:28:42.642Z,87.61
2019-04-06T00:29:42.615Z,87.05
2019-04-06T00:30:42.592Z,87.05
2019-04-06T00:31:42.582Z,87.10
2019-04-06T00:32:42.575Z,86.99
2019-04-06T00:33:42.615Z,87.20
2019-04-06T00:34:42.551Z,88.18
2019-04-06T00:35:42.537Z,88.12
2019-04-06T00:36:42.531Z,87.82
2019-04-06T00:37:42.516Z,87.61
2019-04-06T00:38:42.527Z,87.51
2019-04-06T00:39:42.510Z,87.51
2019-04-06T00:40:42.486Z,87.82
2019-04-06T00:41:42.470Z,87.51
2019-04-06T00:42:42.462Z,87.20
2019-04-06T00:43:42.470Z,87.51
2019-04-06T00:44:42.434Z,87.30
2019-04-06T00:45:42.449Z,87.71
2019-04-06T00:46:42.411Z,87.82
2019-04-06T00:47:42.413Z,86.99
2019-04-06T00:48:42.416Z,87.20
2019-04-06T00:49:42.377Z,87.51
2019-04-06T00:50:42.369Z,87.71
2019-04-06T00:51:42.419Z,87.71
2019-04-06T00:52:42.348Z,87.71
2019-04-06T00:53:42.357Z,87.82
2019-04-06T00:54:42.322Z,87.61
2019-04-06T00:55:42.314Z,87.40
2019-04-06T00:56:42.300Z,87.20
2019-04-06T00:57:42.291Z,87.92
2019-04-06T00:58:42.319Z,87.51
2019-04-06T00:59:42.268Z,87.71
2019-04-06T01:00:42.255Z,87.71
2019-04-06T01:01:42.258Z,87.61
2019-04-06T01:02:42.234Z,88.12
2019-04-06T01:03:42.246Z,87.51
2019-04-06T01:04:42.210Z,87.71
2019-04-06T01:05:42.206Z,87.40
2019-04-06T01:06:42.216Z,87.51
2019-04-06T01:07:42.178Z,87.37
2019-04-06T01:08:42.193Z,87.40
2019-04-06T01:09:42.158Z,86.85
2019-04-06T01:10:42.146Z,87.10
2019-04-06T01:11:42.129Z,86.95
2019-04-06T01:12:42.185Z,87.20
2019-04-06T01:13:42.133Z,87.61
2019-04-06T01:14:42.096Z,86.79
2019-04-06T01:15:42.126Z,87.10
2019-04-06T01:16:42.076Z,87.40
2019-04-06T01:17:42.065Z,87.20
2019-04-06T01:18:42.107Z,86.99
2019-04-06T01:19:42.040Z,87.20
2019-04-06T01:20:42.029Z,87.71
2019-04-06T01:21:42.017Z,87.51
2019-04-06T01:22:42.007Z,87.46
2019-04-06T01:23:41.998Z,87.51
2019-04-06T01:24:42.040Z,87.88
2019-04-06T01:25:41.973Z,87.26
2019-04-06T01:26:41.962Z,87.46
2019-04-06T01:27:41.950Z,87.05
2019-04-06T01:28:41.938Z,87.05
2019-04-06T01:29:42.043Z,87.57
2019-04-06T01:30:41.919Z,87.61
2019-04-06T01:31:41.903Z,87.92
2019-04-06T01:32:41.914Z,87.67
2019-04-06T01:33:41.883Z,87.46
2019-04-06T01:34:41.898Z,86.75
2019-04-06T01:35:41.858Z,86.89
2019-04-06T01:36:41.846Z,87.16
2019-04-06T01:37:41.935Z,87.46
2019-04-06T01:38:41.824Z,87.05
2019-04-06T01:39:41.870Z,87.46
2019-04-06T01:40:41.803Z,87.16
2019-04-06T01:41:41.803Z,87.05
2019-04-06T01:42:41.779Z,87.46
2019-04-06T01:43:41.766Z,87.16
2019-04-06T01:44:41.783Z,87.46
2019-04-06T01:45:41.758Z,87.67
2019-04-06T01:46:41.758Z,87.26
2019-04-06T01:47:41.723Z,86.33
2019-04-06T01:48:42.283Z,86.33
2019-04-06T01:49:41.724Z,86.65
2019-04-06T01:50:41.740Z,86.44
2019-04-06T01:51:41.676Z,86.24
2019-04-06T01:52:41.665Z,86.85
2019-04-06T01:53:41.676Z,86.65
2019-04-06T01:54:41.677Z,86.44
2019-04-06T01:55:41.634Z,86.44
2019-04-06T01:56:41.620Z,86.33
2019-04-06T01:57:41.610Z,86.03
2019-04-06T01:58:41.598Z,86.24
2019-04-06T01:59:41.611Z,86.03
2019-04-06T02:00:41.702Z,86.13
2019-04-06T02:01:41.564Z,86.03
2019-04-06T02:02:41.554Z,85.93
2019-04-06T02:03:41.540Z,86.54
2019-04-06T02:04:41.554Z,86.33
2019-04-06T02:05:41.525Z,86.54
2019-04-06T02:06:41.535Z,86.24
2019-04-06T02:07:41.516Z,85.93
2019-04-06T02:08:41.489Z,85.72
2019-04-06T02:09:41.498Z,85.93
2019-04-06T02:10:41.465Z,86.33
2019-04-06T02:11:41.455Z,86.24
2019-04-06T02:12:41.470Z,86.13
2019-04-06T02:13:41.429Z,86.13
2019-04-06T02:14:41.463Z,86.24
2019-04-06T02:15:41.408Z,86.44
2019-04-06T02:16:41.395Z,86.07
2019-04-06T02:17:41.404Z,86.03
2019-04-06T02:18:41.371Z,86.03
2019-04-06T02:19:41.364Z,85.86
2019-04-06T02:20:41.375Z,86.58
2019-04-06T02:21:41.341Z,86.48
2019-04-06T02:22:41.352Z,86.68
2019-04-06T02:23:41.317Z,86.58
2019-04-06T02:24:41.310Z,87.51
2019-04-06T02:25:41.320Z,87.40
2019-04-06T02:26:41.284Z,87.40
2019-04-06T02:27:41.275Z,86.99
2019-04-06T02:28:41.264Z,87.71
2019-04-06T02:29:41.260Z,87.40
2019-04-06T02:30:41.261Z,87.61
2019-04-06T02:31:41.228Z,87.40
2019-04-06T02:32:41.301Z,87.45
2019-04-06T02:33:41.209Z,87.65
2019-04-06T02:34:41.190Z,88.06
2019-04-06T02:35:41.229Z,88.06
2019-04-06T02:36:41.184Z,87.85
2019-04-06T02:37:41.188Z,88.06
2019-04-06T02:38:41.146Z,88.47
2019-04-06T02:39:41.142Z,88.06
2019-04-06T02:40:41.206Z,88.17
2019-04-06T02:41:41.114Z,88.17
2019-04-06T02:42:41.104Z,88.37
2019-04-06T02:43:41.094Z,88.31
2019-04-06T02:44:41.102Z,88.00
2019-04-06T02:45:41.092Z,88.41
2019-04-06T02:46:41.055Z,88.41
2019-04-06T02:47:41.055Z,88.20
2019-04-06T02:48:41.036Z,88.41
2019-04-06T02:49:41.030Z,88.51
2019-04-06T02:50:41.134Z,88.62
2019-04-06T02:51:41.013Z,88.62
2019-04-06T02:52:40.989Z,89.03
2019-04-06T02:53:40.989Z,89.03
2019-04-06T02:54:40.968Z,88.82
2019-04-06T02:55:40.979Z,88.92
2019-04-06T02:56:46.746Z,88.96
2019-04-06T02:57:41.972Z,88.86
2019-04-06T02:58:40.923Z,89.07
2019-04-06T02:59:40.910Z,89.17
2019-04-06T03:00:40.928Z,88.66
2019-04-06T03:01:40.885Z,88.86
2019-04-06T03:02:40.880Z,88.45
2019-04-06T03:03:40.907Z,88.49
2019-04-06T03:04:40.992Z,88.35
2019-04-06T03:05:40.888Z,88.56
2019-04-06T03:06:40.836Z,88.66
2019-04-06T03:07:40.886Z,88.80
2019-04-06T03:08:40.810Z,89.11
2019-04-06T03:09:40.862Z,88.80
2019-04-06T03:10:40.814Z,89.31
2019-04-06T03:11:40.852Z,89.42
2019-04-06T03:12:40.778Z,88.90
2019-04-06T03:13:40.757Z,89.01
2019-04-06T03:14:44.006Z,89.11
2019-04-06T03:15:40.906Z,88.80
2019-04-06T03:16:40.749Z,89.01
2019-04-06T03:17:40.710Z,89.52
2019-04-06T03:18:40.724Z,89.52
2019-04-06T03:19:40.685Z,89.87
2019-04-06T03:20:40.872Z,90.34
2019-04-06T03:21:40.689Z,90.34
2019-04-06T03:22:40.690Z,90.24
2019-04-06T03:23:50.583Z,90.45
2019-04-06T03:24:41.630Z,90.24
2019-04-06T03:25:40.617Z,90.45
2019-04-06T03:26:40.632Z,90.24
2019-04-06T03:27:40.728Z,90.34
2019-04-06T03:28:40.602Z,90.24
2019-04-06T03:29:40.573Z,90.45
2019-04-06T03:30:40.561Z,90.24
2019-04-06T03:31:40.694Z,90.24
2019-04-06T03:32:40.576Z,90.14
2019-04-06T03:33:40.531Z,90.24
2019-04-06T03:34:40.564Z,90.34
2019-04-06T03:35:46.886Z,91.06
2019-04-06T03:36:41.514Z,91.17
2019-04-06T03:37:40.494Z,90.34
2019-04-06T03:38:40.469Z,90.34
2019-04-06T03:39:40.457Z,90.03
2019-04-06T03:40:40.456Z,89.73
2019-04-06T03:41:40.460Z,90.28
2019-04-06T03:42:40.423Z,89.77
2019-04-06T03:43:40.412Z,90.08
2019-04-06T03:44:40.401Z,90.28
2019-04-06T03:45:40.390Z,90.18
2019-04-06T03:46:40.435Z,90.45
2019-04-06T03:47:40.562Z,90.34
2019-04-06T03:48:40.369Z,89.97
2019-04-06T03:49:40.540Z,89.97
2019-04-06T03:50:40.334Z,90.18
2019-04-06T03:51:40.348Z,90.28
2019-04-06T03:52:40.446Z,90.28
2019-04-06T03:53:40.321Z,89.77
2019-04-06T03:54:40.290Z,90.34
2019-04-06T03:55:40.279Z,90.39
2019-04-06T03:56:40.289Z,90.34
2019-04-06T03:57:40.259Z,90.49
2019-04-06T03:58:40.257Z,90.28
2019-04-06T03:59:40.249Z,89.77
2019-04-06T04:00:40.286Z,91.11
2019-04-06T04:01:40.236Z,90.55
2019-04-06T04:02:40.197Z,91.21
2019-04-06T04:03:40.414Z,90.45
2019-04-06T04:04:40.177Z,90.86
2019-04-06T04:05:40.179Z,89.87
2019-04-06T04:06:40.363Z,89.11
2019-04-06T04:07:40.232Z,89.11
2019-04-06T04:08:40.139Z,89.25
2019-04-06T04:09:40.125Z,89.15
2019-04-06T04:10:40.109Z,89.36
2019-04-06T04:11:40.117Z,89.46
2019-04-06T04:12:40.353Z,89.46
2019-04-06T04:13:40.075Z,89.61
2019-04-06T04:14:40.064Z,88.89
2019-04-06T04:15:40.057Z,89.50
2019-04-06T04:16:40.048Z,89.61
2019-04-06T04:17:40.064Z,90.01
2019-04-06T04:18:40.204Z,89.81
2019-04-06T04:19:40.005Z,90.01
2019-04-06T04:20:40.011Z,90.53
2019-04-06T04:21:39.989Z,90.53
2019-04-06T04:22:39.997Z,90.01
2019-04-06T04:23:39.970Z,89.91
2019-04-06T04:24:39.956Z,90.12
2019-04-06T04:25:40.255Z,89.91
2019-04-06T04:26:39.936Z,90.22
2019-04-06T04:27:39.944Z,90.26
2019-04-06T04:28:39.912Z,89.91
2019-04-06T04:29:39.981Z,90.99
2019-04-06T04:30:40.003Z,90.47
2019-04-06T04:31:39.872Z,90.06
2019-04-06T04:32:39.908Z,89.85
2019-04-06T04:33:39.851Z,90.26
2019-04-06T04:34:39.869Z,90.57
2019-04-06T04:35:39.829Z,90.37
2019-04-06T04:36:39.999Z,90.06
2019-04-06T04:37:39.841Z,89.95
2019-04-06T04:38:39.801Z,90.88
2019-04-06T04:39:39.785Z,90.82
2019-04-06T04:40:40.030Z,90.78
2019-04-06T04:41:40.419Z,90.72
2019-04-06T04:42:39.781Z,90.57
2019-04-06T04:43:40.030Z,90.57
2019-04-06T04:44:39.739Z,90.82
2019-04-06T04:45:39.970Z,90.78
2019-04-06T04:46:39.703Z,91.50
2019-04-06T04:47:39.718Z,91.71
2019-04-06T04:48:39.765Z,91.91
2019-04-06T04:49:39.717Z,91.66
2019-04-06T04:50:39.660Z,91.87
2019-04-06T04:51:39.651Z,91.87
2019-04-06T04:52:39.661Z,92.08
2019-04-06T04:53:39.627Z,91.66
2019-04-06T04:54:39.615Z,91.66
2019-04-06T04:55:39.621Z,91.66
2019-04-06T04:56:39.594Z,91.66
2019-04-06T04:57:41.424Z,91.56
2019-04-06T04:58:39.569Z,90.94
2019-04-06T04:59:39.748Z,90.94
2019-04-06T05:00:39.701Z,91.21
2019-04-06T05:01:39.578Z,91.21
2019-04-06T05:02:39.550Z,91.11
2019-04-06T05:03:39.518Z,90.80
2019-04-06T05:04:39.529Z,91.00
2019-04-06T05:05:39.490Z,91.00
2019-04-06T05:06:39.483Z,90.90
2019-04-06T05:07:39.483Z,90.69
2019-04-06T05:08:39.491Z,90.90
2019-04-06T05:09:39.446Z,90.90
2019-04-06T05:10:39.433Z,90.28
2019-04-06T05:11:39.423Z,90.49
2019-04-06T05:12:39.415Z,90.39
2019-04-06T05:13:39.425Z,91.00
2019-04-06T05:14:39.407Z,90.34
2019-04-06T05:15:39.377Z,90.39
2019-04-06T05:16:39.366Z,90.90
2019-04-06T05:17:39.358Z,90.59
2019-04-06T05:18:39.371Z,90.86
2019-04-06T05:19:39.334Z,90.75
2019-04-06T05:20:39.343Z,90.66
2019-04-06T05:21:39.401Z,90.75
2019-04-06T05:22:39.303Z,90.45
2019-04-06T05:23:39.317Z,90.24
2019-04-06T05:24:39.278Z,89.83
2019-04-06T05:25:39.294Z,89.94
2019-04-06T05:26:39.263Z,90.24
2019-04-06T05:27:50.490Z,89.73
2019-04-06T05:28:40.255Z,90.03
2019-04-06T05:29:39.224Z,90.14
2019-04-06T05:30:39.209Z,90.24
2019-04-06T05:31:39.341Z,90.45
2019-04-06T05:32:39.234Z,89.73
2019-04-06T05:33:39.304Z,90.14
2019-04-06T05:34:39.175Z,90.14
2019-04-06T05:35:39.158Z,89.94
2019-04-06T05:36:39.248Z,90.34
2019-04-06T05:37:39.152Z,89.94
2019-04-06T05:38:39.143Z,89.73
2019-04-06T05:39:39.108Z,89.89
2019-04-06T05:40:39.098Z,90.34
2019-04-06T05:41:39.094Z,89.58
2019-04-06T05:42:39.074Z,89.52
2019-04-06T05:43:39.112Z,88.59
2019-04-06T05:44:39.053Z,88.66
2019-04-06T05:45:39.041Z,89.28
2019-04-06T05:46:39.029Z,89.28
2019-04-06T05:47:39.123Z,89.38
2019-04-06T05:48:39.035Z,89.42
2019-04-06T05:49:39.025Z,89.48
2019-04-06T05:50:38.985Z,88.76
2019-04-06T05:51:38.974Z,89.38
2019-04-06T05:52:39.151Z,88.86
2019-04-06T05:53:38.977Z,89.28
2019-04-06T05:54:38.945Z,88.76
2019-04-06T05:55:39.005Z,88.86
2019-04-06T05:56:38.929Z,88.86
2019-04-06T05:57:38.908Z,88.96
2019-04-06T05:58:40.872Z,88.96
2019-04-06T05:59:40.968Z,89.03
2019-04-06T06:00:40.535Z,88.92
2019-04-06T06:01:40.613Z,88.92
2019-04-06T06:02:41.310Z,88.31
2019-04-06T06:03:41.094Z,88.41
2019-04-06T06:04:41.009Z,88.41
2019-04-06T06:05:41.021Z,88.10
2019-04-06T06:06:38.806Z,88.00
2019-04-06T06:07:38.797Z,88.41
2019-04-06T06:08:38.791Z,87.79
2019-04-06T06:09:38.884Z,87.90
2019-04-06T06:10:38.769Z,88.20
2019-04-06T06:11:38.749Z,88.06
2019-04-06T06:12:38.739Z,88.17
2019-04-06T06:13:39.450Z,88.17
2019-04-06T06:14:38.750Z,88.27
2019-04-06T06:15:38.726Z,88.37
2019-04-06T06:16:38.695Z,87.85
2019-04-06T06:17:38.810Z,88.06
2019-04-06T06:18:38.972Z,87.75
2019-04-06T06:19:38.683Z,87.75
2019-04-06T06:20:38.847Z,87.85
2019-04-06T06:21:38.672Z,87.55
2019-04-06T06:22:38.625Z,87.34
2019-04-06T06:23:38.774Z,86.83
2019-04-06T06:24:38.627Z,87.75
2019-04-06T06:25:38.593Z,87.45
2019-04-06T06:26:38.618Z,87.65
2019-04-06T06:27:38.579Z,87.55
2019-04-06T06:28:38.558Z,87.71
2019-04-06T06:29:38.576Z,87.61
2019-04-06T06:30:38.747Z,87.10
2019-04-06T06:31:38.524Z,87.51
2019-04-06T06:32:38.512Z,86.89
2019-04-06T06:33:38.506Z,86.54
2019-04-06T06:34:38.514Z,86.54
2019-04-06T06:35:38.549Z,86.75
2019-04-06T06:36:38.687Z,86.44
2019-04-06T06:37:38.458Z,86.03
2019-04-06T06:38:39.298Z,85.58
2019-04-06T06:39:38.469Z,85.58
2019-04-06T06:40:38.430Z,85.89
2019-04-06T06:41:38.569Z,85.41
2019-04-06T06:42:38.407Z,85.47
2019-04-06T06:43:38.391Z,84.96
2019-04-06T06:44:38.400Z,84.86
2019-04-06T06:45:38.369Z,84.76
2019-04-06T06:46:38.352Z,85.06
2019-04-06T06:47:38.351Z,85.06
2019-04-06T06:48:38.333Z,84.86
2019-04-06T06:49:38.345Z,84.04
2019-04-06T06:50:38.307Z,83.22
2019-04-06T06:51:38.306Z,83.53
2019-04-06T06:52:38.288Z,83.73
2019-04-06T06:53:38.279Z,83.59
2019-04-06T06:54:38.287Z,83.39
2019-04-06T06:55:38.250Z,83.18
2019-04-06T06:56:38.254Z,82.87
2019-04-06T06:57:38.236Z,83.69
2019-04-06T06:58:38.220Z,82.97
2019-04-06T06:59:38.208Z,82.73
2019-04-06T07:00:38.335Z,82.73
2019-04-06T07:01:38.185Z,81.95
2019-04-06T07:02:38.176Z,81.23
2019-04-06T07:03:38.176Z,80.99
2019-04-06T07:04:38.151Z,80.88
2019-04-06T07:05:38.212Z,82.36
2019-04-06T07:06:38.201Z,81.23
2019-04-06T07:07:38.117Z,80.78
2019-04-06T07:08:39.591Z,81.20
2019-04-06T07:09:38.111Z,81.91
2019-04-06T07:10:38.106Z,81.91
2019-04-06T07:11:38.072Z,80.27
2019-04-06T07:12:38.060Z,80.37
2019-04-06T07:13:38.051Z,80.99
2019-04-06T07:14:38.056Z,81.05
2019-04-06T07:15:38.049Z,81.20
2019-04-06T07:16:38.013Z,80.78
2019-04-06T07:17:38.003Z,80.88
2019-04-06T07:18:37.998Z,80.54
2019-04-06T07:19:37.980Z,79.82
2019-04-06T07:20:38.094Z,80.13
2019-04-06T07:21:37.957Z,80.33
2019-04-06T07:22:37.946Z,80.23
2019-04-06T07:23:37.936Z,80.23
2019-04-06T07:24:37.924Z,79.62
2019-04-06T07:25:37.936Z,79.52
2019-04-06T07:26:40.609Z,79.11
2019-04-06T07:27:38.042Z,79.62
2019-04-06T07:28:39.127Z,79.82
2019-04-06T07:29:37.936Z,79.52
2019-04-06T07:30:37.879Z,79.31
2019-04-06T07:31:37.844Z,79.68
2019-04-06T07:32:37.849Z,79.68
2019-04-06T07:33:37.828Z,80.09
2019-04-06T07:34:37.814Z,79.27
2019-04-06T07:35:37.827Z,78.97
2019-04-06T07:36:37.787Z,77.53
2019-04-06T07:37:37.781Z,78.15
2019-04-06T07:38:38.355Z,77.23
2019-04-06T07:39:37.781Z,77.02
2019-04-06T07:40:37.766Z,77.53
2019-04-06T07:41:37.730Z,77.84
2019-04-06T07:42:37.770Z,77.84
2019-04-06T07:43:37.708Z,77.43
2019-04-06T07:44:37.940Z,77.73
2019-04-06T07:45:37.726Z,77.64
2019-04-06T07:46:37.674Z,77.60
2019-04-06T07:47:37.671Z,77.09
2019-04-06T07:48:37.668Z,76.78
2019-04-06T07:49:37.808Z,75.24
2019-04-06T07:50:37.652Z,75.96
2019-04-06T07:51:37.629Z,76.78
2019-04-06T07:52:37.608Z,75.35
2019-04-06T07:53:37.595Z,75.65
2019-04-06T07:54:37.585Z,76.64
2019-04-06T07:55:37.580Z,76.57
2019-04-06T07:56:37.603Z,75.93
2019-04-06T07:57:37.558Z,75.62
2019-04-06T07:58:48.003Z,76.64
2019-04-06T07:59:38.525Z,76.54
2019-04-06T08:00:37.520Z,75.10
2019-04-06T08:01:37.528Z,75.01
2019-04-06T08:02:37.495Z,75.38
2019-04-06T08:03:37.482Z,76.20
2019-04-06T08:04:37.474Z,75.89
2019-04-06T08:05:37.478Z,75.48
2019-04-06T08:06:37.477Z,76.71
2019-04-06T08:07:37.666Z,75.99
2019-04-06T08:08:37.432Z,75.07
2019-04-06T08:09:37.624Z,74.46
2019-04-06T08:10:37.404Z,73.64
2019-04-06T08:11:37.443Z,74.63
2019-04-06T08:12:37.617Z,75.14
2019-04-06T08:13:37.368Z,75.85
2019-04-06T08:14:37.361Z,75.75
2019-04-06T08:15:37.347Z,75.34
2019-04-06T08:16:37.430Z,75.14
2019-04-06T08:17:37.563Z,75.24
2019-04-06T08:18:37.314Z,74.90
2019-04-06T08:19:37.551Z,75.65
2019-04-06T08:20:37.317Z,75.24
2019-04-06T08:21:37.304Z,74.39
2019-04-06T08:22:37.267Z,74.84
2019-04-06T08:23:37.332Z,74.52
2019-04-06T08:24:37.262Z,74.29
2019-04-06T08:25:37.233Z,74.39
2019-04-06T08:26:37.247Z,74.90
2019-04-06T08:27:37.211Z,74.69
2019-04-06T08:28:37.201Z,74.08
2019-04-06T08:29:37.195Z,74.18
2019-04-06T08:30:45.438Z,74.18
2019-04-06T08:31:38.187Z,72.82
2019-04-06T08:32:37.153Z,71.94
2019-04-06T08:33:37.145Z,72.75
2019-04-06T08:34:37.131Z,74.39
2019-04-06T08:35:37.137Z,73.16
2019-04-06T08:36:37.135Z,72.62
2019-04-06T08:37:37.097Z,72.72
2019-04-06T08:38:37.085Z,72.82
2019-04-06T08:39:37.117Z,72.72
2019-04-06T08:40:37.063Z,72.62
2019-04-06T08:41:37.080Z,71.70
2019-04-06T08:42:37.048Z,71.29
2019-04-06T08:43:37.029Z,71.39
2019-04-06T08:44:37.018Z,71.91
2019-04-06T08:45:37.008Z,72.00
2019-04-06T08:46:37.227Z,72.31
2019-04-06T08:47:37.089Z,72.52
2019-04-06T08:48:37.010Z,73.54
2019-04-06T08:49:37.175Z,73.44
2019-04-06T08:50:36.980Z,73.33
2019-04-06T08:51:36.941Z,72.92
2019-04-06T08:52:36.955Z,72.11
2019-04-06T08:53:36.917Z,72.82
2019-04-06T08:54:36.921Z,72.82
2019-04-06T08:55:36.896Z,73.44
2019-04-06T08:56:36.885Z,73.40
2019-04-06T08:57:36.916Z,73.10
2019-04-06T08:58:36.863Z,72.89
2019-04-06T08:59:36.905Z,73.30
2019-04-06T09:00:36.857Z,73.40
2019-04-06T09:01:36.824Z,73.16
2019-04-06T09:02:36.844Z,72.34
2019-04-06T09:03:36.804Z,72.04
2019-04-06T09:04:36.794Z,72.72
2019-04-06T09:05:36.898Z,70.07
2019-04-06T09:06:36.776Z,68.44
2019-04-06T09:07:36.783Z,68.54
2019-04-06T09:08:36.757Z,69.53
2019-04-06T09:09:36.736Z,69.12
2019-04-06T09:10:36.723Z,69.83
2019-04-06T09:11:36.762Z,69.83
2019-04-06T09:12:37.022Z,69.76
2019-04-06T09:13:36.810Z,68.91
2019-04-06T09:14:36.685Z,69.73
2019-04-06T09:15:36.907Z,70.54
2019-04-06T09:16:36.656Z,69.83
2019-04-06T09:17:36.676Z,69.32
2019-04-06T09:18:36.660Z,69.22
2019-04-06T09:19:36.621Z,70.24
2019-04-06T09:20:36.610Z,70.24
2019-04-06T09:21:36.606Z,69.53
2019-04-06T09:22:36.715Z,67.08
2019-04-06T09:23:36.575Z,66.77
2019-04-06T09:24:36.585Z,67.29
2019-04-06T09:25:36.560Z,68.23
2019-04-06T09:26:36.780Z,69.12
2019-04-06T09:27:36.558Z,66.57
2019-04-06T09:28:36.521Z,67.59
2019-04-06T09:29:36.521Z,66.88
2019-04-06T09:30:36.508Z,65.95
2019-04-06T09:31:36.493Z,66.16
2019-04-06T09:32:36.684Z,65.86
2019-04-06T09:33:36.687Z,67.38
2019-04-06T09:34:36.454Z,68.88
2019-04-06T09:35:36.439Z,68.98
2019-04-06T09:36:36.436Z,67.55
2019-04-06T09:37:36.510Z,68.37
2019-04-06T09:38:36.488Z,68.17
2019-04-06T09:39:36.395Z,67.73
2019-04-06T09:40:36.389Z,68.48
2019-04-06T09:41:36.376Z,68.34
2019-04-06T09:42:36.404Z,67.73
2019-04-06T09:43:36.385Z,66.71
2019-04-06T09:44:36.341Z,66.91
2019-04-06T09:45:36.327Z,65.25
2019-04-06T09:46:36.501Z,63.96
2019-04-06T09:47:36.562Z,65.46
2019-04-06T09:48:36.318Z,66.07
2019-04-06T09:49:36.300Z,63.93
2019-04-06T09:50:36.292Z,63.62
2019-04-06T09:51:36.259Z,65.66
2019-04-06T09:52:36.250Z,65.43
2019-04-06T09:53:36.278Z,63.22
2019-04-06T09:54:36.228Z,63.39
2019-04-06T09:55:36.338Z,63.80
2019-04-06T09:56:36.208Z,65.12
2019-04-06T09:57:36.191Z,63.70
2019-04-06T09:58:36.217Z,63.19
2019-04-06T09:59:37.217Z,61.33
2019-04-06T10:00:36.453Z,63.06
2019-04-06T10:01:38.942Z,62.72
2019-04-06T10:02:36.135Z,62.82
2019-04-06T10:03:36.148Z,63.26
2019-04-06T10:04:36.113Z,64.04
2019-04-06T10:05:36.290Z,63.74
2019-04-06T10:06:36.090Z,63.94
2019-04-06T10:07:36.085Z,63.84
2019-04-06T10:08:36.263Z,63.33
2019-04-06T10:09:36.055Z,62.93
2019-04-06T10:10:36.283Z,62.72
2019-04-06T10:11:36.033Z,63.02
2019-04-06T10:12:36.029Z,62.82
2019-04-06T10:13:36.046Z,60.66
2019-04-06T10:14:36.342Z,61.10
2019-04-06T10:15:36.015Z,60.97
2019-04-06T10:16:36.008Z,61.37
2019-04-06T10:17:35.969Z,59.21
2019-04-06T10:18:35.977Z,61.04
2019-04-06T10:19:35.961Z,61.14
2019-04-06T10:20:36.147Z,61.82
2019-04-06T10:21:36.191Z,61.08
2019-04-06T10:22:35.909Z,61.08
2019-04-06T10:23:35.940Z,60.37
2019-04-06T10:24:35.887Z,60.37
2019-04-06T10:25:35.909Z,61.08
2019-04-06T10:26:35.862Z,59.05
2019-04-06T10:27:35.850Z,56.41
2019-04-06T10:28:35.864Z,57.50
2019-04-06T10:29:47.671Z,58.69
2019-04-06T10:30:36.816Z,57.48
2019-04-06T10:31:36.082Z,57.28
2019-04-06T10:32:35.936Z,55.25
2019-04-06T10:33:36.281Z,56.57
2019-04-06T10:34:35.773Z,55.76
2019-04-06T10:35:35.764Z,55.85
2019-04-06T10:36:35.788Z,56.77
2019-04-06T10:37:36.001Z,56.54
2019-04-06T10:38:35.731Z,55.93
2019-04-06T10:39:35.740Z,53.63
2019-04-06T10:40:35.707Z,53.70
2019-04-06T10:41:35.697Z,53.80
2019-04-06T10:42:35.682Z,54.21
2019-04-06T10:43:35.690Z,55.60
2019-04-06T10:44:35.685Z,55.30
2019-04-06T10:45:35.793Z,55.17
2019-04-06T10:46:35.636Z,55.17
2019-04-06T10:47:35.843Z,53.65
2019-04-06T10:48:35.904Z,54.74
2019-04-06T10:49:35.634Z,54.44
2019-04-06T10:50:35.596Z,54.33
2019-04-06T10:51:35.593Z,54.61
2019-04-06T10:52:35.572Z,51.88
2019-04-06T10:53:35.558Z,51.86
2019-04-06T10:54:35.572Z,52.06
2019-04-06T10:55:35.535Z,53.05
2019-04-06T10:56:35.525Z,52.03
2019-04-06T10:57:35.722Z,51.03
2019-04-06T10:58:35.500Z,51.53
2019-04-06T10:59:35.512Z,52.21
2019-04-06T11:00:35.480Z,51.61
2019-04-06T11:01:35.469Z,49.48
2019-04-06T11:02:35.456Z,48.98
2019-04-06T11:03:35.568Z,48.65
2019-04-06T11:04:35.458Z,48.07
2019-04-06T11:05:35.422Z,48.98
2019-04-06T11:06:35.424Z,50.39
2019-04-06T11:07:35.565Z,51.07
2019-04-06T11:08:35.387Z,48.63
2019-04-06T11:09:35.404Z,49.54
2019-04-06T11:10:35.662Z,48.13
2019-04-06T11:11:35.354Z,49.13
2019-04-06T11:12:35.513Z,49.31
2019-04-06T11:13:35.332Z,48.21
2019-04-06T11:14:35.418Z,46.37
2019-04-06T11:15:35.318Z,47.88
2019-04-06T11:16:35.319Z,47.98
2019-04-06T11:17:35.292Z,47.07
2019-04-06T11:18:35.273Z,48.50
2019-04-06T11:19:35.288Z,47.30
2019-04-06T11:20:35.252Z,48.91
2019-04-06T11:21:35.518Z,49.19
2019-04-06T11:22:35.518Z,48.89
2019-04-06T11:23:35.281Z,48.96
2019-04-06T11:24:35.290Z,49.16
2019-04-06T11:25:35.309Z,47.94
2019-04-06T11:26:35.206Z,47.81
2019-04-06T11:27:35.178Z,48.21
2019-04-06T11:28:35.167Z,45.72
2019-04-06T11:29:35.153Z,45.82
2019-04-06T11:30:35.161Z,45.09
2019-04-06T11:31:35.139Z,45.59
2019-04-06T11:32:35.119Z,45.09
2019-04-06T11:33:35.104Z,45.42
2019-04-06T11:34:35.119Z,46.70
2019-04-06T11:35:35.106Z,45.50
2019-04-06T11:36:35.350Z,46.00
2019-04-06T11:37:35.375Z,46.80
2019-04-06T11:38:35.047Z,46.91
2019-04-06T11:39:35.038Z,47.39
2019-04-06T11:40:35.051Z,46.98
2019-04-06T11:41:35.014Z,46.78
2019-04-06T11:42:35.019Z,46.88
2019-04-06T11:43:34.991Z,46.56
2019-04-06T11:44:34.983Z,45.75
2019-04-06T11:45:34.993Z,45.83
2019-04-06T11:46:34.958Z,44.02
2019-04-06T11:47:34.949Z,42.44
2019-04-06T11:48:34.938Z,45.86
2019-04-06T11:49:34.957Z,46.66
2019-04-06T11:50:34.940Z,44.35
2019-04-06T11:51:34.910Z,45.25
2019-04-06T11:52:35.058Z,44.95
2019-04-06T11:53:35.140Z,44.17
2019-04-06T11:54:34.891Z,46.26
2019-04-06T11:55:34.903Z,45.05
2019-04-06T11:56:35.104Z,43.84
2019-04-06T11:57:34.836Z,45.78
2019-04-06T11:58:34.849Z,46.88
2019-04-06T11:59:34.891Z,47.06
2019-04-06T12:00:34.826Z,48.07
2019-04-06T12:01:34.800Z,47.77
2019-04-06T12:02:34.826Z,46.76
2019-04-06T12:03:34.767Z,46.76
2019-04-06T12:04:35.027Z,46.23
2019-04-06T12:05:34.805Z,47.16
2019-04-06T12:06:34.788Z,46.94
2019-04-06T12:07:34.734Z,46.54
2019-04-06T12:08:34.861Z,46.72
2019-04-06T12:09:34.756Z,46.81
2019-04-06T12:10:34.711Z,46.03
2019-04-06T12:11:35.005Z,46.31
2019-04-06T12:12:34.826Z,45.33
2019-04-06T12:13:34.654Z,45.41
2019-04-06T12:14:34.650Z,46.31
2019-04-06T12:15:34.658Z,46.59
2019-04-06T12:16:34.621Z,46.81
2019-04-06T12:17:34.610Z,47.42
2019-04-06T12:18:34.598Z,46.22
2019-04-06T12:19:34.588Z,46.61
2019-04-06T12:20:34.611Z,44.60
2019-04-06T12:21:34.591Z,43.30
2019-04-06T12:22:34.561Z,42.90
2019-04-06T12:23:34.542Z,44.15
2019-04-06T12:24:34.745Z,45.98
2019-04-06T12:25:34.561Z,46.78
2019-04-06T12:26:34.550Z,45.87
2019-04-06T12:27:34.497Z,46.76
2019-04-06T12:28:34.490Z,46.86
2019-04-06T12:29:34.484Z,47.69
2019-04-06T12:30:38.573Z,48.29
2019-04-06T12:31:34.736Z,46.66
2019-04-06T12:32:34.597Z,45.33
2019-04-06T12:33:34.443Z,45.33
2019-04-06T12:34:34.420Z,46.54
2019-04-06T12:35:34.421Z,44.20
2019-04-06T12:36:34.439Z,46.14
2019-04-06T12:37:34.398Z,46.54
2019-04-06T12:38:34.473Z,45.03
2019-04-06T12:39:34.381Z,46.22
2019-04-06T12:40:34.352Z,46.81
2019-04-06T12:41:34.375Z,46.92
2019-04-06T12:42:34.331Z,46.92
2019-04-06T12:43:34.317Z,47.50
2019-04-06T12:44:34.352Z,46.67
2019-04-06T12:45:34.296Z,46.75
2019-04-06T12:46:34.309Z,46.85
2019-04-06T12:47:34.305Z,46.95
2019-04-06T12:48:34.588Z,47.15
2019-04-06T12:49:34.250Z,47.97
2019-04-06T12:50:34.238Z,48.38
2019-04-06T12:51:34.254Z,46.69
2019-04-06T12:52:34.474Z,46.59